createdAt,value
2022-09-07T00:01:05.717Z,99.90
2022-09-07T00:03:32.425Z,99.90
2022-09-07T00:05:59.841Z,99.90
2022-09-07T00:08:29.845Z,99.90
2022-09-07T00:10:57.658Z,99.90
2022-09-07T00:13:25.158Z,99.90
2022-09-07T00:33:25.255Z,99.90
2022-09-07T00:35:52.146Z,99.90
2022-09-07T00:38:18.782Z,99.90
2022-09-07T00:40:45.486Z,99.90
2022-09-07T00:43:28.974Z,99.90
2022-09-07T00:45:55.647Z,99.90
2022-09-07T00:48:23.941Z,99.90
2022-09-07T00:50:52.575Z,99.90
2022-09-07T00:53:23.419Z,99.90
2022-09-07T00:55:51.031Z,99.90
2022-09-07T00:58:19.391Z,99.90
2022-09-07T01:00:46.750Z,99.90
2022-09-07T01:03:15.087Z,99.90
2022-09-07T01:05:43.891Z,99.90
2022-09-07T01:08:12.128Z,99.90
2022-09-07T01:10:38.856Z,99.90
2022-09-07T01:13:05.693Z,99.90
2022-09-07T01:15:44.781Z,99.90
2022-09-07T01:18:19.684Z,99.90
2022-09-07T01:21:15.687Z,99.90
2022-09-07T01:23:42.333Z,99.90
2022-09-07T01:26:11.935Z,99.90
2022-09-07T01:28:38.892Z,99.90
2022-09-07T01:31:15.765Z,99.90
2022-09-07T01:33:48.446Z,99.90
2022-09-07T01:36:17.875Z,99.90
2022-09-07T01:38:44.505Z,99.90
2022-09-07T01:41:14.153Z,99.90
2022-09-07T01:43:43.716Z,99.90
2022-09-07T01:46:22.612Z,99.90
2022-09-07T01:48:51.206Z,99.90
2022-09-07T01:51:19.200Z,99.90
2022-09-07T01:53:50.666Z,99.90
2022-09-07T01:56:22.343Z,99.90
2022-09-07T01:59:12.351Z,99.90
2022-09-07T02:01:45.975Z,99.90
2022-09-07T02:04:20.609Z,99.90
2022-09-07T02:06:58.599Z,99.90
2022-09-07T02:09:29.187Z,99.90
2022-09-07T02:11:56.109Z,99.90
2022-09-07T02:14:23.054Z,99.90
2022-09-07T02:17:03.447Z,99.90
2022-09-07T02:19:33.689Z,99.90
2022-09-07T02:22:03.234Z,99.90
2022-09-07T02:24:35.239Z,99.90
2022-09-07T02:27:05.485Z,99.90
2022-09-07T02:29:32.678Z,99.90
2022-09-07T02:31:59.403Z,99.90
2022-09-07T02:34:26.243Z,99.90
2022-09-07T02:36:53.505Z,99.90
2022-09-07T02:39:20.293Z,99.90
2022-09-07T02:41:47.055Z,99.90
2022-09-07T02:44:15.481Z,99.90
2022-09-07T02:46:55.692Z,99.90
2022-09-07T02:49:25.199Z,99.90
2022-09-07T02:51:58.101Z,99.90
2022-09-07T02:54:30.554Z,99.90
2022-09-07T02:56:57.187Z,99.90
2022-09-07T02:59:23.832Z,99.90
2022-09-07T03:01:56.615Z,99.90
2022-09-07T03:04:52.641Z,99.90
2022-09-07T03:07:22.538Z,99.90
2022-09-07T03:09:51.227Z,99.90
2022-09-07T03:12:17.948Z,99.90
2022-09-07T03:14:44.864Z,99.90
2022-09-07T03:17:11.790Z,99.90
2022-09-07T03:19:38.477Z,99.90
2022-09-07T03:22:05.471Z,99.90
2022-09-07T03:24:32.169Z,99.90
2022-09-07T03:26:58.857Z,99.90
2022-09-07T03:29:25.585Z,99.90
2022-09-07T03:31:52.263Z,99.90
2022-09-07T03:34:18.914Z,99.90
2022-09-07T03:36:45.572Z,99.90
2022-09-07T03:39:12.476Z,99.90
2022-09-07T03:41:39.153Z,99.90
2022-09-07T03:44:06.704Z,99.90
2022-09-07T03:46:33.638Z,99.90
2022-09-07T03:49:00.472Z,99.90
2022-09-07T03:51:27.192Z,99.90
2022-09-07T03:53:54.380Z,99.90
2022-09-07T03:56:22.194Z,99.90
2022-09-07T03:58:49.339Z,99.90
2022-09-07T04:01:17.387Z,99.90
2022-09-07T04:03:44.672Z,99.90
2022-09-07T04:06:11.934Z,99.90
2022-09-07T04:08:39.244Z,99.90
2022-09-07T04:11:06.931Z,99.90
2022-09-07T04:13:34.894Z,99.90
2022-09-07T04:16:09.304Z,99.90
2022-09-07T04:18:36.274Z,99.90
2022-09-07T04:21:03.180Z,99.90
2022-09-07T04:23:29.839Z,99.90
2022-09-07T04:25:56.496Z,99.90
2022-09-07T04:28:23.326Z,99.90
2022-09-07T04:30:50.101Z,99.90
2022-09-07T04:33:16.914Z,99.90
2022-09-07T04:35:43.656Z,99.90
2022-09-07T04:38:14.389Z,99.90
2022-09-07T04:40:41.388Z,99.90
2022-09-07T04:43:09.556Z,99.90
2022-09-07T04:45:39.436Z,99.90
2022-09-07T04:48:06.476Z,99.90
2022-09-07T04:50:33.159Z,99.90
2022-09-07T04:52:59.821Z,99.90
2022-09-07T04:55:26.501Z,99.90
2022-09-07T04:57:53.173Z,99.90
2022-09-07T05:00:19.889Z,99.90
2022-09-07T05:02:46.617Z,99.90
2022-09-07T05:05:13.424Z,99.90
2022-09-07T05:07:40.101Z,99.90
2022-09-07T05:10:06.929Z,99.90
2022-09-07T05:12:33.637Z,99.90
2022-09-07T05:15:00.399Z,99.90
2022-09-07T05:17:27.184Z,99.90
2022-09-07T05:19:54.900Z,99.90
2022-09-07T05:22:22.323Z,99.90
2022-09-07T05:24:49.088Z,99.90
2022-09-07T05:27:15.751Z,99.90
2022-09-07T05:32:29.810Z,99.90
2022-09-07T05:34:56.519Z,99.90
2022-09-07T05:37:23.357Z,99.90
2022-09-07T05:39:52.351Z,99.90
2022-09-07T05:42:19.154Z,99.90
2022-09-07T05:44:46.117Z,99.90
2022-09-07T05:47:13.253Z,99.90
2022-09-07T05:49:40.326Z,98.70
2022-09-07T05:52:07.365Z,96.30
2022-09-07T05:54:34.049Z,94.80
2022-09-07T05:57:02.957Z,94.40
2022-09-07T05:59:29.635Z,92.90
2022-09-07T06:01:56.400Z,91.30
2022-09-07T06:04:23.212Z,89.10
2022-09-07T06:07:17.765Z,87.60
2022-09-07T06:12:23.676Z,84.40
2022-09-07T06:14:50.351Z,84.70
2022-09-07T06:17:17.014Z,84.40
2022-09-07T06:19:43.660Z,84.10
2022-09-07T06:22:10.319Z,83.20
2022-09-07T06:24:36.947Z,81.70
2022-09-07T06:27:04.578Z,82.60
2022-09-07T06:29:31.300Z,83.90
2022-09-07T06:34:44.682Z,92.00
2022-09-07T06:37:11.722Z,95.10
2022-09-07T06:39:38.456Z,98.10
2022-09-07T06:42:05.191Z,98.80
2022-09-07T06:44:32.124Z,96.80
2022-09-07T06:49:28.405Z,97.40
2022-09-07T06:51:55.542Z,99.50
2022-09-07T06:57:09.699Z,99.80
2022-09-07T06:59:37.019Z,97.50
2022-09-07T07:02:04.110Z,98.30
2022-09-07T07:04:30.881Z,99.90
2022-09-07T07:06:57.546Z,99.90
2022-09-07T07:09:24.334Z,99.90
2022-09-07T07:11:51.053Z,99.90
2022-09-07T07:14:17.998Z,99.90
2022-09-07T07:16:45.596Z,99.90
2022-09-07T07:19:12.309Z,99.90
2022-09-07T07:22:03.593Z,99.90
2022-09-07T07:24:25.809Z,99.90
2022-09-07T07:26:52.611Z,99.90
2022-09-07T07:29:19.364Z,99.90
2022-09-07T07:31:47.040Z,99.90
2022-09-07T07:34:14.799Z,99.90
2022-09-07T07:36:41.525Z,95.90
2022-09-07T07:39:08.494Z,92.40
2022-09-07T07:41:56.503Z,84.60
2022-09-07T07:44:25.576Z,82.50
2022-09-07T07:46:52.365Z,77.00
2022-09-07T07:49:19.170Z,75.00
2022-09-07T07:54:38.653Z,73.10
2022-09-07T07:57:05.960Z,72.10
2022-09-07T07:59:32.752Z,70.70
2022-09-07T08:02:04.543Z,68.20
2022-09-07T08:04:35.190Z,67.10
2022-09-07T08:07:09.224Z,65.90
2022-09-07T08:09:37.987Z,66.30
2022-09-07T08:12:04.672Z,66.50
2022-09-07T08:14:31.598Z,64.50
2022-09-07T08:16:58.239Z,62.60
2022-09-07T08:19:24.910Z,63.00
2022-09-07T08:21:51.548Z,62.10
2022-09-07T08:24:18.123Z,63.30
2022-09-07T08:26:44.824Z,62.00
2022-09-07T08:29:11.517Z,62.50
2022-09-07T08:31:38.193Z,61.60
2022-09-07T08:34:04.920Z,61.20
2022-09-07T08:36:31.971Z,61.00
2022-09-07T08:38:58.631Z,62.50
2022-09-07T08:41:34.148Z,62.10
2022-09-07T08:44:00.743Z,62.90
2022-09-07T08:46:38.421Z,63.60
2022-09-07T08:49:06.160Z,61.90
2022-09-07T08:51:41.984Z,63.20
2022-09-07T08:54:11.818Z,64.20
2022-09-07T08:57:20.466Z,63.20
2022-09-07T08:59:35.679Z,61.70
2022-09-07T09:07:35.468Z,61.70
2022-09-07T09:10:21.044Z,59.50
2022-09-07T09:12:59.613Z,59.00
2022-09-07T09:15:32.248Z,61.30
2022-09-07T09:18:14.818Z,61.10
2022-09-07T09:20:44.649Z,60.70
2022-09-07T09:23:12.696Z,60.30
2022-09-07T09:25:55.449Z,62.70
2022-09-07T09:28:22.463Z,64.20
2022-09-07T09:30:50.034Z,67.20
2022-09-07T09:33:16.679Z,64.90
2022-09-07T09:35:44.117Z,65.50
2022-09-07T09:38:29.255Z,65.40
2022-09-07T09:40:57.036Z,64.30
2022-09-07T09:43:31.262Z,60.60
2022-09-07T09:46:13.651Z,63.50
2022-09-07T09:48:41.569Z,61.60
2022-09-07T09:54:05.920Z,62.70
2022-09-07T09:56:36.292Z,65.40
2022-09-07T10:05:20.832Z,70.40
2022-09-07T10:07:51.984Z,70.30
2022-09-07T10:10:18.727Z,68.30
2022-09-07T10:12:46.006Z,63.70
2022-09-07T10:15:25.355Z,64.30
2022-09-07T10:17:52.127Z,63.20
2022-09-07T10:20:19.985Z,62.00
2022-09-07T10:22:57.072Z,62.90
2022-09-07T10:25:36.974Z,63.40
2022-09-07T10:28:15.579Z,64.90
2022-09-07T10:30:42.290Z,65.30
2022-09-07T10:33:23.990Z,64.70
2022-09-07T10:35:55.120Z,67.10
2022-09-07T10:38:26.011Z,64.20
2022-09-07T10:40:52.642Z,63.90
2022-09-07T10:43:31.508Z,66.10
2022-09-07T10:46:56.334Z,68.20
2022-09-07T10:49:03.417Z,68.40
2022-09-07T10:51:30.056Z,67.60
2022-09-07T10:57:03.635Z,68.50
2022-09-07T11:02:32.213Z,68.50
2022-09-07T11:05:17.573Z,69.70
2022-09-07T11:07:56.125Z,69.90
2022-09-07T11:10:28.509Z,71.20
2022-09-07T11:12:58.060Z,70.20
2022-09-07T11:15:29.913Z,69.10
2022-09-07T11:18:02.754Z,70.80
2022-09-07T11:20:42.489Z,73.70
2022-09-07T11:23:18.612Z,72.30
2022-09-07T11:25:46.665Z,71.60
2022-09-07T11:28:25.786Z,71.00
2022-09-07T11:31:00.377Z,71.70
2022-09-07T11:33:30.143Z,72.60
2022-09-07T11:36:00.971Z,70.60
2022-09-07T11:38:42.793Z,72.30
2022-09-07T11:41:15.216Z,73.40
2022-09-07T11:43:43.897Z,71.20
2022-09-07T11:46:19.454Z,70.00
2022-09-07T11:48:52.419Z,68.10
2022-09-07T11:51:40.056Z,68.50
2022-09-07T11:54:17.060Z,69.10
2022-09-07T11:56:53.231Z,67.60
2022-09-07T11:59:38.711Z,69.00
2022-09-07T12:02:14.618Z,68.80
2022-09-07T12:04:44.186Z,66.80
2022-09-07T12:07:29.148Z,65.10
2022-09-07T12:09:55.757Z,67.50
2022-09-07T12:12:28.404Z,69.20
2022-09-07T12:15:02.821Z,67.40
2022-09-07T12:17:44.598Z,69.50
2022-09-07T12:20:11.300Z,65.90
2022-09-07T12:22:38.110Z,67.50
2022-09-07T12:25:08.705Z,69.90
2022-09-07T12:27:35.276Z,71.30
2022-09-07T12:30:01.887Z,73.20
2022-09-07T12:33:05.849Z,70.30
2022-09-07T12:35:50.522Z,70.80
2022-09-07T12:38:17.125Z,71.80
2022-09-07T12:40:46.885Z,70.20
2022-09-07T12:43:13.613Z,68.00
2022-09-07T12:45:40.255Z,69.50
2022-09-07T12:48:06.889Z,69.40
2022-09-07T12:50:39.134Z,69.90
2022-09-07T12:53:12.945Z,70.60
2022-09-07T12:58:57.560Z,70.20
2022-09-07T13:01:24.210Z,70.00
2022-09-07T13:04:09.512Z,70.20
2022-09-07T13:09:31.682Z,70.30
2022-09-07T13:11:58.804Z,68.30
2022-09-07T13:14:26.731Z,69.30
2022-09-07T13:17:16.600Z,69.20
2022-09-07T13:19:46.508Z,67.50
2022-09-07T13:22:36.210Z,68.40
2022-09-07T13:25:19.168Z,67.60
2022-09-07T13:27:59.800Z,70.30
2022-09-07T13:30:37.247Z,68.10
2022-09-07T13:33:22.113Z,68.60
2022-09-07T13:35:49.824Z,68.30
2022-09-07T13:38:16.797Z,67.00
2022-09-07T13:40:46.019Z,66.30
2022-09-07T13:43:17.948Z,67.40
2022-09-07T13:45:53.733Z,67.10
2022-09-07T13:48:26.603Z,66.60
2022-09-07T13:51:03.586Z,66.50
2022-09-07T13:53:33.344Z,68.00
2022-09-07T13:56:26.197Z,66.80
2022-09-07T13:58:53.621Z,65.30
2022-09-07T14:01:24.859Z,65.50
2022-09-07T14:04:07.572Z,65.20
2022-09-07T14:06:35.127Z,66.10
2022-09-07T14:09:04.126Z,66.90
2022-09-07T14:11:44.408Z,64.50
2022-09-07T14:14:15.318Z,65.00
2022-09-07T14:16:43.802Z,66.30
2022-09-07T14:19:17.097Z,67.70
2022-09-07T14:21:43.859Z,68.70
2022-09-07T14:24:24.707Z,69.30
2022-09-07T14:26:52.917Z,69.20
2022-09-07T14:29:24.115Z,68.60
2022-09-07T14:31:50.996Z,68.50
2022-09-07T14:34:19.270Z,68.40
2022-09-07T14:36:46.898Z,69.00
2022-09-07T14:39:15.455Z,70.70
2022-09-07T14:41:43.001Z,69.90
2022-09-07T14:44:28.644Z,69.30
2022-09-07T14:46:57.289Z,67.30
2022-09-07T14:49:24.278Z,71.00
2022-09-07T14:51:51.853Z,73.50
2022-09-07T14:54:20.152Z,71.10
2022-09-07T14:57:01.007Z,73.00
2022-09-07T14:59:47.456Z,75.80
2022-09-07T15:02:26.946Z,74.70
2022-09-07T15:05:12.594Z,73.70
2022-09-07T15:07:40.157Z,70.00
2022-09-07T15:10:23.117Z,70.20
2022-09-07T15:12:51.075Z,69.60
2022-09-07T15:15:22.096Z,69.10
2022-09-07T15:17:49.220Z,68.20
2022-09-07T15:20:32.397Z,68.20
2022-09-07T15:22:59.527Z,68.10
2022-09-07T15:25:26.150Z,69.10
2022-09-07T15:27:53.880Z,70.80
2022-09-07T15:30:20.478Z,70.20
2022-09-07T15:32:47.136Z,71.00
2022-09-07T15:35:13.877Z,69.20
2022-09-07T15:40:28.459Z,69.50
2022-09-07T15:43:13.696Z,69.20
2022-09-07T15:45:41.899Z,70.10
2022-09-07T15:48:14.181Z,70.40
2022-09-07T15:50:42.051Z,70.80
2022-09-07T15:54:06.646Z,71.40
2022-09-07T15:55:55.426Z,71.60
2022-09-07T15:58:22.091Z,72.50
2022-09-07T16:00:49.114Z,69.70
2022-09-07T16:03:15.910Z,70.20
2022-09-07T16:05:44.136Z,69.70
2022-09-07T16:08:27.618Z,70.10
2022-09-07T16:10:55.768Z,69.50
2022-09-07T16:13:24.273Z,72.50
2022-09-07T16:15:51.165Z,72.10
2022-09-07T16:18:18.650Z,70.20
2022-09-07T16:20:45.275Z,70.00
2022-09-07T16:23:13.971Z,71.80
2022-09-07T16:25:42.306Z,71.40
2022-09-07T16:28:09.442Z,70.60
2022-09-07T16:30:39.004Z,71.70
2022-09-07T16:33:05.769Z,71.40
2022-09-07T16:35:32.978Z,71.10
2022-09-07T16:40:46.679Z,71.60
2022-09-07T16:43:13.299Z,71.70
2022-09-07T16:48:26.537Z,71.70
2022-09-07T16:51:01.607Z,73.50
2022-09-07T16:53:29.831Z,73.40
2022-09-07T16:56:06.477Z,74.40
2022-09-07T16:58:37.602Z,73.50
2022-09-07T17:01:08.292Z,74.90
2022-09-07T17:03:36.643Z,75.10
2022-09-07T17:06:04.210Z,77.50
2022-09-07T17:08:30.861Z,77.60
2022-09-07T17:11:05.249Z,77.30
2022-09-07T17:13:32.394Z,78.70
2022-09-07T17:16:06.252Z,80.90
2022-09-07T17:21:20.550Z,80.60
2022-09-07T17:23:54.412Z,80.10
2022-09-07T17:26:23.243Z,79.90
2022-09-07T17:28:50.790Z,79.20
2022-09-07T17:34:11.598Z,78.90
2022-09-07T17:36:38.240Z,78.70
2022-09-07T17:39:20.321Z,78.70
2022-09-07T17:41:48.514Z,78.00
2022-09-07T17:44:15.459Z,79.10
2022-09-07T17:46:42.230Z,77.90
2022-09-07T17:49:10.119Z,78.90
2022-09-07T17:51:36.792Z,78.40
2022-09-07T17:54:09.566Z,78.50
2022-09-07T17:56:37.017Z,78.60
2022-09-07T18:01:50.570Z,79.40
2022-09-07T18:04:17.444Z,81.00
2022-09-07T18:06:44.116Z,81.30
2022-09-07T18:09:11.208Z,82.20
2022-09-07T18:11:46.846Z,81.10
2022-09-07T18:14:15.125Z,81.90
2022-09-07T18:16:43.326Z,81.90
2022-09-07T18:19:11.096Z,82.60
2022-09-07T18:21:38.436Z,83.40
2022-09-07T18:24:13.507Z,85.50
2022-09-07T18:26:41.019Z,88.10
2022-09-07T18:29:18.926Z,88.80
2022-09-07T18:31:54.587Z,89.40
2022-09-07T18:34:21.253Z,87.40
2022-09-07T18:36:47.905Z,87.50
2022-09-07T18:39:14.675Z,88.00
2022-09-07T18:41:42.182Z,89.40
2022-09-07T18:46:55.807Z,87.80
2022-09-07T18:49:22.453Z,89.10
2022-09-07T18:54:35.680Z,90.80
2022-09-07T18:57:02.282Z,92.30
2022-09-07T18:59:29.854Z,94.40
2022-09-07T19:02:02.991Z,94.60
2022-09-07T19:07:17.594Z,99.20
2022-09-07T19:09:44.242Z,98.10
2022-09-07T19:12:10.933Z,99.00
2022-09-07T19:14:37.662Z,99.90
2022-09-07T19:17:04.461Z,99.90
2022-09-07T19:19:31.101Z,99.90
2022-09-07T19:21:58.307Z,99.90
2022-09-07T19:24:25.752Z,99.90
2022-09-07T19:26:55.714Z,99.90
2022-09-07T19:29:25.157Z,99.90
2022-09-07T19:32:13.442Z,99.90
2022-09-07T19:34:42.102Z,99.90
2022-09-07T19:37:10.043Z,99.90
2022-09-07T19:39:37.051Z,99.90
2022-09-07T19:42:04.288Z,99.90
2022-09-07T19:44:31.155Z,99.90
2022-09-07T19:46:57.809Z,99.90
2022-09-07T19:49:24.470Z,99.90
2022-09-07T19:51:51.977Z,99.90
2022-09-07T19:54:18.939Z,99.90
2022-09-07T19:56:46.019Z,99.90
2022-09-07T19:59:13.182Z,99.90
2022-09-07T20:01:40.694Z,99.90
2022-09-07T20:04:10.513Z,99.90
2022-09-07T20:06:38.128Z,99.90
2022-09-07T20:09:05.524Z,99.90
2022-09-07T20:11:32.763Z,99.90
2022-09-07T20:13:59.373Z,99.90
2022-09-07T20:16:27.268Z,99.90
2022-09-07T20:18:54.161Z,99.90
2022-09-07T20:21:22.079Z,99.90
2022-09-07T20:23:48.800Z,99.90
2022-09-07T20:26:16.755Z,99.90
2022-09-07T20:28:43.516Z,99.90
2022-09-07T20:31:11.752Z,99.90
2022-09-07T20:33:38.442Z,99.90
2022-09-07T20:36:05.257Z,99.90
2022-09-07T20:38:32.339Z,99.90
2022-09-07T20:41:00.625Z,99.90
2022-09-07T20:43:27.296Z,99.90
2022-09-07T20:45:57.633Z,99.90
2022-09-07T20:48:24.330Z,99.90
2022-09-07T20:50:54.188Z,99.90
2022-09-07T20:53:20.820Z,99.90
2022-09-07T20:55:47.447Z,99.90
2022-09-07T20:58:14.049Z,99.90
2022-09-07T21:00:40.684Z,99.90
2022-09-07T21:03:07.322Z,99.90
2022-09-07T21:05:35.267Z,99.90
2022-09-07T21:08:01.988Z,99.90
2022-09-07T21:10:28.703Z,99.90
2022-09-07T21:12:55.453Z,99.90
2022-09-07T21:15:22.109Z,99.90
2022-09-07T21:17:48.752Z,99.90
2022-09-07T21:20:15.778Z,99.90
2022-09-07T21:22:42.433Z,99.90
2022-09-07T21:25:10.568Z,99.90
2022-09-07T21:27:38.687Z,99.90
2022-09-07T21:30:05.950Z,99.90
2022-09-07T21:32:33.192Z,99.90
2022-09-07T21:34:59.777Z,99.90
2022-09-07T21:37:26.771Z,99.90
2022-09-07T21:39:53.590Z,99.90
2022-09-07T21:42:20.212Z,99.90
2022-09-07T21:44:46.904Z,99.90
2022-09-07T21:47:13.599Z,99.90
2022-09-07T21:49:40.209Z,99.90
2022-09-07T21:52:06.946Z,99.90
2022-09-07T21:54:33.529Z,99.90
2022-09-07T21:57:00.103Z,99.90
2022-09-07T21:59:26.693Z,99.90
2022-09-07T22:01:53.408Z,99.90
2022-09-07T22:04:20.180Z,99.90
2022-09-07T22:06:46.880Z,99.90
2022-09-07T22:09:13.518Z,99.90
2022-09-07T22:11:44.053Z,99.90
2022-09-07T22:14:13.076Z,99.90
2022-09-07T22:16:39.716Z,99.90
2022-09-07T22:19:09.222Z,99.90
2022-09-07T22:21:35.834Z,99.90
2022-09-07T22:24:03.875Z,99.90
2022-09-07T22:26:32.121Z,99.90
2022-09-07T22:28:58.972Z,99.90
2022-09-07T22:31:27.154Z,99.90
2022-09-07T22:33:54.613Z,99.90
2022-09-07T22:36:22.650Z,99.90
2022-09-07T22:38:50.457Z,99.90
2022-09-07T22:41:18.783Z,99.90
2022-09-07T22:43:45.779Z,99.90
2022-09-07T22:46:12.765Z,99.90
2022-09-07T22:48:39.934Z,99.90
2022-09-07T22:51:07.454Z,99.90
2022-09-07T22:53:34.800Z,99.90
2022-09-07T22:56:09.013Z,99.90
2022-09-07T22:58:36.145Z,99.90
2022-09-07T23:01:03.356Z,99.90
2022-09-07T23:03:30.772Z,99.90
2022-09-07T23:05:57.505Z,99.90
2022-09-07T23:08:24.428Z,99.90
2022-09-07T23:10:51.866Z,99.90
2022-09-07T23:13:18.708Z,99.90
2022-09-07T23:15:46.077Z,99.90
2022-09-07T23:18:14.126Z,99.90
2022-09-07T23:20:41.252Z,99.90
2022-09-07T23:23:08.205Z,99.90
2022-09-07T23:25:38.364Z,99.90
2022-09-07T23:28:06.267Z,99.90
2022-09-07T23:30:33.349Z,99.90
2022-09-07T23:32:59.986Z,99.90
2022-09-07T23:35:26.633Z,99.90
2022-09-07T23:37:53.837Z,99.90
2022-09-07T23:40:20.675Z,99.90
2022-09-07T23:42:47.543Z,99.90
2022-09-07T23:45:14.221Z,99.90
2022-09-07T23:47:40.949Z,99.90
2022-09-07T23:50:08.141Z,99.90
2022-09-07T23:52:34.852Z,99.90
2022-09-07T23:55:01.522Z,99.90
2022-09-07T23:57:28.191Z,99.90
2022-09-07T23:59:54.872Z,99.90
